Terminal Aerodrome Forecast
Issued by NWS Dallas/Fort Worth, TX

Home | Current Version | Previous Version | Text Only | Print | Product List | Glossary On
Versions: 1 2 3 4 5 6 7 8 9 10 11 12 13 14 15 16 17 18 19 20 21 22 23 24 25 26
000
FTUS44 KFWD 262106 AAA
TAFACT
TAF AMD
KACT 262106Z 2621/2718 16006KT P6SM BKN025
     FM262300 17012KT P6SM VCTS BKN025CB
     FM270300 14008KT 2SM -DZ BR OVC005
     FM271600 17005KT P6SM SCT020=

USA.gov is the U.S. government's official web portal to all federal, state and local government web resources and services.